This is the latest recevied weather packets stored in our database for station/object EA3IK-7. If no packets are shown the sender has not sent any weather packets the latest 10 day(s).
| Time | Temp. | Humidity | Pressure | Rain* | Wind** | Luminosity | Snow |
|---|---|---|---|---|---|---|---|
| 1777546197 | 23.89° C | 62% | 1013.6 hPa | - | - | - | - |
| 1777544397 | 22.78° C | 65% | 1013.5 hPa | - | - | - | - |
| 1777542597 | 21.67° C | 69% | 1013.4 hPa | - | - | - | - |
| 1777540797 | 20.56° C | 74% | 1013.1 hPa | - | - | - | - |
| 1777538997 | 19.44° C | 77% | 1012.9 hPa | - | - | - | - |
| 1777537197 | 17.78° C | 79% | 1012.7 hPa | - | - | - | - |
| 1777535397 | 17.22° C | 82% | 1012.4 hPa | - | - | - | - |
| 1777533597 | 17.22° C | 83% | 1012.4 hPa | - | - | - | - |
| 1777531797 | 16.67° C | 87% | 1012.2 hPa | - | - | - | - |
| 1777529997 | 16.11° C | 87% | 1012.2 hPa | - | - | - | - |
| 1777528197 | 16.11° C | 88% | 1012.1 hPa | - | - | - | - |
| 1777526397 | 15.56° C | 88% | 1011.8 hPa | - | - | - | - |
| 1777524597 | 15.56° C | 89% | 1011.5 hPa | - | - | - | - |
| 1777522797 | 16.11° C | 88% | 1011.1 hPa | - | - | - | - |
| 1777520996 | 16.11° C | 88% | 1011.1 hPa | - | - | - | - |
| 1777519196 | 16.11° C | 87% | 1011 hPa | - | - | - | - |
| 1777517396 | 16.67° C | 86% | 1011 hPa | - | - | - | - |
| 1777515596 | 16.67° C | 85% | 1011 hPa | - | - | - | - |
| 1777513796 | 16.67° C | 84% | 1011 hPa | - | - | - | - |
| 1777511996 | 17.22° C | 84% | 1011.2 hPa | - | - | - | - |
| 1777510196 | 17.22° C | 83% | 1011.2 hPa | - | - | - | - |
| 1777508396 | 17.78° C | 82% | 1011.5 hPa | - | - | - | - |
| 1777506599 | 17.78° C | 80% | 1011.4 hPa | - | - | - | - |
| 1777504796 | 18.33° C | 78% | 1011.4 hPa | - | - | - | - |
| 1777502998 | 18.33° C | 77% | 1011.2 hPa | - | - | - | - |
* Rain since midnight (hover to see other rain measurements)
** Current wind speed in m/s (hover to see current wind gust speed)